createdAt,value
2022-08-02T00:00:59.304Z,98434.28
2022-08-02T00:03:26.007Z,98493.41
2022-08-02T00:05:53.740Z,98520.38
2022-08-02T00:08:21.602Z,98502.03
2022-08-02T00:10:48.614Z,98557.75
2022-08-02T00:13:15.377Z,98500.72
2022-08-02T00:15:42.084Z,98554.59
2022-08-02T00:18:09.000Z,98556.69
2022-08-02T00:20:35.670Z,98467.97
2022-08-02T00:23:02.342Z,98483.91
2022-08-02T00:25:29.068Z,98549.09
2022-08-02T00:27:55.956Z,98555.22
2022-08-02T00:30:22.612Z,98552.31
2022-08-02T00:32:49.331Z,98504.22
2022-08-02T00:35:16.019Z,98426.78
2022-08-02T00:37:42.883Z,98572.88
2022-08-02T00:40:10.582Z,98468.16
2022-08-02T00:42:38.468Z,98463.28
2022-08-02T00:45:05.873Z,98520.94
2022-08-02T00:47:32.555Z,98526.50
2022-08-02T00:49:59.344Z,98520.13
2022-08-02T00:52:26.216Z,98522.09
2022-08-02T00:54:53.048Z,98471.16
2022-08-02T00:57:19.986Z,98402.34
2022-08-02T00:59:46.679Z,98557.28
2022-08-02T01:02:13.899Z,98511.84
2022-08-02T01:04:40.767Z,98562.84
2022-08-02T01:07:12.690Z,98480.47
2022-08-02T01:09:45.118Z,98537.41
2022-08-02T01:12:12.755Z,98363.69
2022-08-02T01:14:46.395Z,98496.28
2022-08-02T01:17:28.456Z,98559.34
2022-08-02T01:20:16.889Z,98566.72
2022-08-02T01:23:12.776Z,98520.66
2022-08-02T01:26:04.370Z,98557.03
2022-08-02T01:28:52.683Z,98483.88
2022-08-02T01:31:31.843Z,98558.66
2022-08-02T01:34:04.355Z,98558.66
2022-08-02T01:36:38.453Z,98556.69
2022-08-02T01:39:08.013Z,98539.06
2022-08-02T01:41:36.047Z,98555.69
2022-08-02T01:47:01.330Z,98559.47
2022-08-02T01:49:30.854Z,98508.53
2022-08-02T01:52:00.342Z,98566.34
2022-08-02T01:54:30.851Z,98578.03
2022-08-02T01:56:59.396Z,98468.56
2022-08-02T01:59:28.419Z,98554.03
2022-08-02T02:01:57.637Z,98537.75
2022-08-02T02:04:26.611Z,98571.84
2022-08-02T02:06:54.607Z,98480.47
2022-08-02T02:09:23.593Z,98489.56
2022-08-02T02:12:05.225Z,98578.16
2022-08-02T02:14:39.530Z,98576.25
2022-08-02T02:17:08.067Z,98518.94
2022-08-02T02:19:58.268Z,98568.41
2022-08-02T02:22:25.876Z,98539.19
2022-08-02T02:24:54.675Z,98587.75
2022-08-02T02:27:22.804Z,98536.81
2022-08-02T02:29:51.883Z,98493.66
2022-08-02T02:32:21.394Z,98553.56
2022-08-02T02:34:51.133Z,98531.91
2022-08-02T02:37:21.836Z,98573.41
2022-08-02T02:39:54.081Z,98563.59
2022-08-02T02:42:27.411Z,98503.75
2022-08-02T02:44:54.908Z,98471.09
2022-08-02T02:47:23.076Z,98470.78
2022-08-02T02:50:10.131Z,98585.50
2022-08-02T02:52:39.355Z,98542.75
2022-08-02T02:55:07.824Z,98573.19
2022-08-02T02:57:36.579Z,98521.53
2022-08-02T03:00:07.216Z,98554.09
2022-08-02T03:02:37.504Z,98500.47
2022-08-02T03:05:06.179Z,98572.25
2022-08-02T03:07:33.860Z,98575.00
2022-08-02T03:10:01.301Z,98465.19
2022-08-02T03:12:32.236Z,98575.91
2022-08-02T03:15:01.438Z,98547.78
2022-08-02T03:17:47.035Z,98514.31
2022-08-02T03:20:16.598Z,98513.63
2022-08-02T03:22:44.906Z,98477.38
2022-08-02T03:25:13.194Z,98582.44
2022-08-02T03:27:40.699Z,98536.94
2022-08-02T03:30:10.067Z,98545.44
2022-08-02T03:32:38.769Z,98558.19
2022-08-02T03:35:07.812Z,98586.81
2022-08-02T03:37:37.082Z,98497.69
2022-08-02T03:40:08.212Z,98590.00
2022-08-02T03:42:34.904Z,98536.13
2022-08-02T03:45:08.168Z,98547.34
2022-08-02T03:47:37.794Z,98503.16
2022-08-02T03:50:05.668Z,98460.91
2022-08-02T03:52:33.428Z,98461.59
2022-08-02T03:55:00.261Z,98506.41
2022-08-02T03:57:27.113Z,98481.03
2022-08-02T03:59:53.657Z,98527.00
2022-08-02T04:02:20.493Z,98572.44
2022-08-02T04:04:47.344Z,98514.19
2022-08-02T04:07:14.012Z,98569.19
2022-08-02T04:09:40.590Z,98519.84
2022-08-02T04:12:07.366Z,98527.13
2022-08-02T04:14:36.228Z,98510.38
2022-08-02T04:17:08.449Z,98452.59
2022-08-02T04:19:47.364Z,98593.44
2022-08-02T04:22:23.789Z,98510.16
2022-08-02T04:24:56.476Z,98554.84
2022-08-02T04:27:51.297Z,98537.00
2022-08-02T04:30:12.094Z,98569.38
2022-08-02T04:32:39.666Z,98519.00
2022-08-02T04:35:23.230Z,98485.53
2022-08-02T04:38:08.210Z,98546.75
2022-08-02T04:40:37.582Z,98587.03
2022-08-02T04:43:04.249Z,98461.69
2022-08-02T04:45:31.763Z,98599.72
2022-08-02T04:48:06.404Z,98507.56
2022-08-02T04:50:34.838Z,98600.88
2022-08-02T04:53:01.599Z,98498.19
2022-08-02T04:55:28.691Z,98516.50
2022-08-02T04:57:56.757Z,98581.13
2022-08-02T05:00:25.599Z,98545.22
2022-08-02T05:02:52.331Z,98515.22
2022-08-02T05:05:19.457Z,98548.78
2022-08-02T05:07:46.172Z,98483.38
2022-08-02T05:10:13.389Z,98538.91
2022-08-02T05:12:40.180Z,98546.00
2022-08-02T05:15:09.242Z,98574.00
2022-08-02T05:17:40.094Z,98552.84
2022-08-02T05:20:14.670Z,98524.22
2022-08-02T05:22:41.847Z,98559.59
2022-08-02T05:25:09.290Z,98616.28
2022-08-02T05:27:35.920Z,98583.16
2022-08-02T05:30:03.461Z,98590.38
2022-08-02T05:32:30.044Z,98589.47
2022-08-02T05:34:56.939Z,98542.06
2022-08-02T05:37:23.655Z,98566.72
2022-08-02T05:39:55.838Z,98550.13
2022-08-02T05:42:23.801Z,98615.50
2022-08-02T05:44:50.542Z,98598.56
2022-08-02T05:47:17.402Z,98502.94
2022-08-02T05:49:44.041Z,98583.19
2022-08-02T05:52:19.239Z,98546.63
2022-08-02T05:54:57.400Z,98633.34
2022-08-02T05:57:43.839Z,98598.16
2022-08-02T06:00:13.404Z,98605.13
2022-08-02T06:02:43.010Z,98627.88
2022-08-02T06:05:20.167Z,98493.66
2022-08-02T06:07:49.522Z,98581.63
2022-08-02T06:10:20.025Z,98634.41
2022-08-02T06:12:49.480Z,98628.44
2022-08-02T06:15:18.123Z,98631.38
2022-08-02T06:17:45.821Z,98591.81
2022-08-02T06:20:15.642Z,98601.97
2022-08-02T06:22:44.630Z,98630.53
2022-08-02T06:25:48.461Z,98612.28
2022-08-02T06:28:01.071Z,98624.84
2022-08-02T06:30:28.964Z,98614.38
2022-08-02T06:32:55.635Z,98580.56
2022-08-02T06:35:26.478Z,98594.66
2022-08-02T06:38:03.330Z,98532.91
2022-08-02T06:40:33.112Z,98572.56
2022-08-02T06:43:14.272Z,98628.88
2022-08-02T06:45:41.218Z,98565.34
2022-08-02T06:48:08.809Z,98578.72
2022-08-02T06:50:36.455Z,98614.88
2022-08-02T06:53:03.236Z,98565.16
2022-08-02T06:55:29.898Z,98610.97
2022-08-02T06:57:56.406Z,98547.91
2022-08-02T07:00:23.296Z,98551.75
2022-08-02T07:02:50.354Z,98624.41
2022-08-02T07:05:17.143Z,98617.16
2022-08-02T07:07:43.783Z,98592.56
2022-08-02T07:10:10.622Z,98585.28
2022-08-02T07:12:37.138Z,98571.94
2022-08-02T07:15:07.014Z,98622.97
2022-08-02T07:17:34.616Z,98613.75
2022-08-02T07:20:01.457Z,98525.66
2022-08-02T07:22:28.478Z,98596.84
2022-08-02T07:24:57.180Z,98563.50
2022-08-02T07:27:24.136Z,98591.38
2022-08-02T07:29:50.892Z,98541.81
2022-08-02T07:32:18.849Z,98535.88
2022-08-02T07:34:50.965Z,98521.53
2022-08-02T07:37:53.607Z,98530.56
2022-08-02T07:40:13.717Z,98561.25
2022-08-02T07:42:44.800Z,98505.13
2022-08-02T07:45:13.094Z,98583.09
2022-08-02T07:47:41.167Z,98590.88
2022-08-02T07:50:08.857Z,98511.75
2022-08-02T07:52:36.224Z,98525.59
2022-08-02T07:55:02.957Z,98547.66
2022-08-02T07:57:29.657Z,98524.19
2022-08-02T07:59:56.320Z,98530.25
2022-08-02T08:02:23.032Z,98542.91
2022-08-02T08:04:49.729Z,98535.31
2022-08-02T08:07:16.396Z,98554.53
2022-08-02T08:09:42.946Z,98556.31
2022-08-02T08:12:10.766Z,98474.09
2022-08-02T08:14:39.298Z,98532.97
2022-08-02T08:17:06.841Z,98544.59
2022-08-02T08:19:50.152Z,98584.78
2022-08-02T08:22:22.110Z,98524.53
2022-08-02T08:24:49.172Z,98556.13
2022-08-02T08:27:16.837Z,98519.31
2022-08-02T08:29:44.390Z,98505.00
2022-08-02T08:32:16.299Z,98575.03
2022-08-02T08:34:44.111Z,98527.31
2022-08-02T08:37:17.118Z,98566.50
2022-08-02T08:39:56.343Z,98544.38
2022-08-02T08:42:24.615Z,98537.72
2022-08-02T08:44:51.224Z,98512.50
2022-08-02T08:47:18.587Z,98412.84
2022-08-02T08:49:53.129Z,98558.41
2022-08-02T08:52:25.642Z,98492.88
2022-08-02T08:54:53.860Z,98517.44
2022-08-02T08:57:21.286Z,98472.69
2022-08-02T08:59:48.275Z,98504.41
2022-08-02T09:02:17.760Z,98508.28
2022-08-02T09:04:54.610Z,98464.84
2022-08-02T09:07:22.969Z,98475.38
2022-08-02T09:09:49.645Z,98537.03
2022-08-02T09:12:18.176Z,98453.78
2022-08-02T09:14:45.812Z,98577.44
2022-08-02T09:17:17.857Z,98543.28
2022-08-02T09:19:45.776Z,98540.34
2022-08-02T09:22:14.814Z,98431.34
2022-08-02T09:24:49.785Z,98568.53
2022-08-02T09:27:19.543Z,98566.19
2022-08-02T09:30:12.497Z,98556.56
2022-08-02T09:32:48.472Z,98495.38
2022-08-02T09:36:06.548Z,98514.50
2022-08-02T09:38:21.351Z,98517.44
2022-08-02T09:40:47.913Z,98297.75
2022-08-02T09:43:15.605Z,98458.78
2022-08-02T09:45:43.307Z,98483.66
2022-08-02T09:48:10.236Z,98541.88
2022-08-02T09:50:38.961Z,98475.63
2022-08-02T09:53:06.711Z,98549.09
2022-08-02T09:55:33.543Z,98526.19
2022-08-02T09:58:17.243Z,98502.28
2022-08-02T10:00:58.306Z,98532.94
2022-08-02T10:03:29.033Z,98479.44
2022-08-02T10:06:03.358Z,98539.59
2022-08-02T10:08:32.993Z,98539.00
2022-08-02T10:11:01.692Z,98497.09
2022-08-02T10:13:33.012Z,98502.72
2022-08-02T10:16:00.342Z,98451.81
2022-08-02T10:18:38.645Z,98445.59
2022-08-02T10:21:12.313Z,98451.50
2022-08-02T10:23:39.941Z,98483.88
2022-08-02T10:26:08.162Z,98462.44
2022-08-02T10:28:35.879Z,98461.31
2022-08-02T10:31:05.001Z,98450.53
2022-08-02T10:33:34.740Z,98511.84
2022-08-02T10:36:07.679Z,98501.19
2022-08-02T10:38:36.246Z,98435.47
2022-08-02T10:41:03.279Z,98475.53
2022-08-02T10:43:32.990Z,98501.19
2022-08-02T10:46:27.565Z,98499.53
2022-08-02T10:49:37.472Z,98468.59
2022-08-02T10:52:01.775Z,98497.69
2022-08-02T10:54:31.435Z,98490.81
2022-08-02T10:56:59.441Z,98463.63
2022-08-02T10:59:31.463Z,98473.63
2022-08-02T11:02:11.469Z,98427.97
2022-08-02T11:04:41.210Z,98492.09
2022-08-02T11:07:12.151Z,98492.31
2022-08-02T11:09:38.908Z,98428.78
2022-08-02T11:12:24.918Z,98490.81
2022-08-02T11:15:01.477Z,98471.91
2022-08-02T11:17:28.914Z,98453.06
2022-08-02T11:20:11.256Z,98493.59
2022-08-02T11:22:39.194Z,98473.50
2022-08-02T11:25:24.189Z,98492.50
2022-08-02T11:27:56.909Z,98426.50
2022-08-02T11:30:26.877Z,98396.38
2022-08-02T11:32:58.515Z,98432.47
2022-08-02T11:35:37.524Z,98429.03
2022-08-02T11:38:33.818Z,98476.41
2022-08-02T11:41:06.109Z,98411.50
2022-08-02T11:43:37.165Z,98407.78
2022-08-02T11:46:04.971Z,98485.13
2022-08-02T11:48:40.408Z,98420.56
2022-08-02T11:51:14.307Z,98465.66
2022-08-02T11:53:52.712Z,98425.16
2022-08-02T11:56:26.894Z,98459.50
2022-08-02T11:59:08.961Z,98419.91
2022-08-02T12:01:45.425Z,98403.78
2022-08-02T12:04:22.837Z,98368.00
2022-08-02T12:06:56.234Z,98409.41
2022-08-02T12:09:27.627Z,98314.88
2022-08-02T12:11:57.116Z,98474.91
2022-08-02T12:14:25.444Z,98329.94
2022-08-02T12:16:53.000Z,98389.97
2022-08-02T12:19:20.145Z,98459.78
2022-08-02T12:21:47.339Z,98457.75
2022-08-02T12:24:26.692Z,98458.38
2022-08-02T12:26:53.365Z,98432.25
2022-08-02T12:29:57.711Z,98447.44
2022-08-02T12:32:27.196Z,98453.78
2022-08-02T12:35:06.495Z,98456.75
2022-08-02T12:37:33.683Z,98286.59
2022-08-02T12:40:25.149Z,98426.91
2022-08-02T12:42:57.870Z,98373.22
2022-08-02T12:45:26.555Z,98407.31
2022-08-02T12:47:55.876Z,98402.03
2022-08-02T12:50:32.847Z,98352.84
2022-08-02T12:53:13.186Z,98456.75
2022-08-02T12:55:59.924Z,98393.34
2022-08-02T12:58:30.264Z,98381.88
2022-08-02T13:01:01.702Z,98414.75
2022-08-02T13:04:09.995Z,98459.75
2022-08-02T13:06:40.760Z,98297.88
2022-08-02T13:09:12.418Z,98423.63
2022-08-02T13:11:42.906Z,98408.38
2022-08-02T13:14:11.248Z,98414.25
2022-08-02T13:16:37.899Z,98420.38
2022-08-02T13:19:04.713Z,98423.31
2022-08-02T13:21:41.449Z,98336.66
2022-08-02T13:24:39.253Z,98365.34
2022-08-02T13:27:08.625Z,98438.03
2022-08-02T13:29:39.028Z,98420.38
2022-08-02T13:32:06.055Z,98349.69
2022-08-02T13:34:33.001Z,98348.63
2022-08-02T13:36:59.800Z,98327.03
2022-08-02T13:39:26.461Z,98367.69
2022-08-02T13:41:53.452Z,98334.56
2022-08-02T13:44:22.810Z,98391.75
2022-08-02T13:46:49.762Z,98367.91
2022-08-02T13:49:20.171Z,98120.41
2022-08-02T13:51:52.826Z,98387.81
2022-08-02T13:54:19.666Z,98355.66
2022-08-02T13:56:46.597Z,98380.03
2022-08-02T13:59:54.656Z,98054.47
2022-08-02T14:02:00.634Z,98380.88
2022-08-02T14:04:29.552Z,98275.44
2022-08-02T14:06:58.858Z,98080.47
2022-08-02T14:09:26.864Z,98413.22
2022-08-02T14:11:53.944Z,98362.44
2022-08-02T14:14:20.718Z,98277.13
2022-08-02T14:16:47.409Z,98296.06
2022-08-02T14:19:16.406Z,98278.25
2022-08-02T14:21:46.301Z,98390.66
2022-08-02T14:24:18.918Z,98336.03
2022-08-02T14:26:46.567Z,98374.38
2022-08-02T14:29:16.886Z,98310.63
2022-08-02T14:31:45.108Z,98415.94
2022-08-02T14:34:15.245Z,98294.66
2022-08-02T14:36:42.130Z,98371.34
2022-08-02T14:39:09.219Z,98359.09
2022-08-02T14:41:58.217Z,98284.41
2022-08-02T14:44:22.775Z,98314.16
2022-08-02T14:46:51.516Z,98344.47
2022-08-02T14:49:25.334Z,98305.97
2022-08-02T14:51:56.995Z,97892.97
2022-08-02T14:54:28.212Z,98397.59
2022-08-02T14:56:59.836Z,98403.56
2022-08-02T14:59:27.120Z,98376.47
2022-08-02T15:01:54.470Z,98309.44
2022-08-02T15:04:21.244Z,98335.59
2022-08-02T15:06:47.907Z,98399.78
2022-08-02T15:09:14.599Z,98347.22
2022-08-02T15:11:47.150Z,98352.28
2022-08-02T15:14:19.072Z,98354.88
2022-08-02T15:16:57.109Z,98358.25
2022-08-02T15:19:25.950Z,98309.47
2022-08-02T15:22:05.243Z,98346.63
2022-08-02T15:24:31.836Z,98345.56
2022-08-02T15:26:58.488Z,98382.72
2022-08-02T15:29:25.262Z,98361.72
2022-08-02T15:31:51.879Z,98361.25
2022-08-02T15:34:18.617Z,98344.59
2022-08-02T15:36:45.691Z,98264.34
2022-08-02T15:39:12.283Z,98336.75
2022-08-02T15:41:38.953Z,98299.19
2022-08-02T15:44:09.119Z,98371.50
2022-08-02T15:47:00.611Z,98377.63
2022-08-02T15:49:27.603Z,98348.03
2022-08-02T15:51:54.709Z,98303.19
2022-08-02T15:54:21.402Z,98345.28
2022-08-02T15:56:48.152Z,98354.53
2022-08-02T15:59:14.835Z,98347.44
2022-08-02T16:01:46.687Z,98249.13
2022-08-02T16:04:15.888Z,98366.16
2022-08-02T16:06:43.009Z,98285.03
2022-08-02T16:09:09.626Z,98267.78
2022-08-02T16:11:36.293Z,98269.31
2022-08-02T16:14:03.028Z,98325.09
2022-08-02T16:16:33.510Z,98349.03
2022-08-02T16:19:47.551Z,98357.00
2022-08-02T16:21:48.066Z,98251.66
2022-08-02T16:24:14.737Z,98285.31
2022-08-02T16:26:42.092Z,98301.22
2022-08-02T16:29:09.292Z,98354.34
2022-08-02T16:31:41.554Z,98293.44
2022-08-02T16:34:09.119Z,98246.25
2022-08-02T16:36:36.316Z,98325.63
2022-08-02T16:39:03.738Z,98222.78
2022-08-02T16:41:51.797Z,98236.25
2022-08-02T16:44:18.551Z,98307.72
2022-08-02T16:46:54.806Z,98261.13
2022-08-02T16:50:07.170Z,98245.38
2022-08-02T16:52:09.594Z,98350.56
2022-08-02T16:54:36.766Z,98182.84
2022-08-02T16:57:04.159Z,98232.53
2022-08-02T16:59:41.446Z,98264.50
2022-08-02T17:02:15.077Z,98164.59
2022-08-02T17:04:45.822Z,98297.28
2022-08-02T17:08:15.682Z,98296.06
2022-08-02T17:10:02.950Z,98141.06
2022-08-02T17:12:32.593Z,98282.22
2022-08-02T17:15:00.881Z,98234.34
2022-08-02T17:17:38.326Z,98238.94
2022-08-02T17:20:08.768Z,98296.22
2022-08-02T17:22:36.882Z,98284.88
2022-08-02T17:25:04.895Z,98243.38
2022-08-02T17:27:31.502Z,98253.63
2022-08-02T17:30:00.026Z,98234.25
2022-08-02T17:32:29.184Z,98248.53
2022-08-02T17:35:00.085Z,98042.41
2022-08-02T17:37:30.608Z,98309.66
2022-08-02T17:39:59.556Z,98291.03
2022-08-02T17:42:26.859Z,98247.13
2022-08-02T17:44:55.051Z,98352.03
2022-08-02T17:47:42.207Z,98267.94
2022-08-02T17:50:12.327Z,98310.53
2022-08-02T17:52:50.593Z,98292.94
2022-08-02T17:55:20.681Z,98361.13
2022-08-02T17:57:56.917Z,98179.22
2022-08-02T18:00:31.951Z,98357.97
2022-08-02T18:03:01.826Z,98305.34
2022-08-02T18:05:40.135Z,98213.31
2022-08-02T18:08:22.909Z,98256.91
2022-08-02T18:10:53.242Z,98361.09
2022-08-02T18:13:20.327Z,98019.88
2022-08-02T18:15:47.773Z,98340.09
2022-08-02T18:18:15.554Z,98350.34
2022-08-02T18:20:42.690Z,98282.66
2022-08-02T18:23:13.449Z,98302.06
2022-08-02T18:25:47.711Z,98349.47
2022-08-02T18:28:18.606Z,98005.22
2022-08-02T18:30:46.736Z,98344.41
2022-08-02T18:33:57.415Z,98338.25
2022-08-02T18:36:02.877Z,98346.16
2022-08-02T18:38:29.587Z,98304.59
2022-08-02T18:40:56.281Z,98322.19
2022-08-02T18:43:25.287Z,98257.13
2022-08-02T18:46:05.801Z,98239.22
2022-08-02T18:48:46.843Z,98028.31
2022-08-02T18:51:15.492Z,98316.81
2022-08-02T18:53:43.206Z,98353.97
2022-08-02T18:56:19.385Z,98232.63
2022-08-02T18:58:48.589Z,98323.81
2022-08-02T19:01:32.398Z,98367.25
2022-08-02T19:04:02.286Z,98250.84
2022-08-02T19:06:29.669Z,98316.75
2022-08-02T19:08:59.768Z,98314.94
2022-08-02T19:11:38.598Z,98327.88
2022-08-02T19:14:07.878Z,98218.94
2022-08-02T19:16:36.729Z,98267.94
2022-08-02T19:19:05.992Z,98354.03
2022-08-02T19:22:17.353Z,98063.63
2022-08-02T19:24:19.523Z,98317.50
2022-08-02T19:26:51.885Z,98322.09
2022-08-02T19:29:42.182Z,98187.31
2022-08-02T19:32:08.654Z,98332.63
2022-08-02T19:34:54.255Z,98314.84
2022-08-02T19:37:21.258Z,98362.25
2022-08-02T19:39:48.343Z,98234.94
2022-08-02T19:42:17.010Z,98244.38
2022-08-02T19:44:46.085Z,98375.66
2022-08-02T19:47:19.425Z,98374.53
2022-08-02T19:49:49.453Z,98053.41
2022-08-02T19:52:25.042Z,98385.84
2022-08-02T19:54:55.574Z,98040.22
2022-08-02T19:57:25.539Z,98379.16
2022-08-02T19:59:54.014Z,98320.50
2022-08-02T20:02:21.155Z,98321.06
2022-08-02T20:04:52.925Z,98311.59
2022-08-02T20:07:56.236Z,98275.22
2022-08-02T20:10:11.165Z,98300.72
2022-08-02T20:12:39.846Z,98335.31
2022-08-02T20:15:14.596Z,98262.31
2022-08-02T20:17:46.464Z,98298.44
2022-08-02T20:20:17.481Z,98378.78
2022-08-02T20:22:44.556Z,98355.63
2022-08-02T20:25:19.230Z,98289.84
2022-08-02T20:27:51.382Z,98342.19
2022-08-02T20:30:18.340Z,98316.22
2022-08-02T20:32:52.638Z,98317.59
2022-08-02T20:35:20.325Z,98330.50
2022-08-02T20:37:59.766Z,98290.88
2022-08-02T20:40:29.370Z,98297.19
2022-08-02T20:42:56.301Z,98312.00
2022-08-02T20:45:23.863Z,98328.41
2022-08-02T20:47:54.521Z,98315.22
2022-08-02T20:50:22.195Z,98292.28
2022-08-02T20:55:51.718Z,98388.16
2022-08-02T20:58:20.293Z,98328.16
2022-08-02T21:00:53.431Z,98358.72
2022-08-02T21:03:20.312Z,98330.06
2022-08-02T21:05:55.767Z,98328.97
2022-08-02T21:08:23.322Z,98359.09
2022-08-02T21:10:51.975Z,98324.47
2022-08-02T21:13:23.135Z,98370.13
2022-08-02T21:15:51.522Z,98329.13
2022-08-02T21:18:24.311Z,98381.97
2022-08-02T21:21:02.287Z,98227.31
2022-08-02T21:23:29.239Z,98350.88
2022-08-02T21:25:57.771Z,98331.66
2022-08-02T21:28:38.272Z,98305.63
2022-08-02T21:31:14.334Z,98312.13
2022-08-02T21:33:56.723Z,98358.78
2022-08-02T21:36:33.013Z,98328.81
2022-08-02T21:39:04.823Z,98313.94
2022-08-02T21:41:39.135Z,98300.88
2022-08-02T21:44:17.302Z,98346.44
2022-08-02T21:46:49.464Z,98365.66
2022-08-02T21:49:20.944Z,98372.47
2022-08-02T21:51:54.440Z,98296.81
2022-08-02T21:54:21.901Z,98283.75
2022-08-02T21:56:53.323Z,98339.88
2022-08-02T21:59:26.111Z,98283.81
2022-08-02T22:01:57.514Z,98358.97
2022-08-02T22:04:27.847Z,98269.41
2022-08-02T22:06:56.053Z,98305.06
2022-08-02T22:09:43.841Z,98319.72
2022-08-02T22:12:16.847Z,98371.56
2022-08-02T22:14:49.563Z,98390.88
2022-08-02T22:17:20.519Z,98387.69
2022-08-02T22:19:50.975Z,98309.22
2022-08-02T22:22:21.387Z,98378.88
2022-08-02T22:24:56.730Z,98397.66
2022-08-02T22:28:11.984Z,98391.59
2022-08-02T22:30:11.384Z,98400.66
2022-08-02T22:32:38.196Z,98438.25
2022-08-02T22:35:08.856Z,98322.22
2022-08-02T22:40:22.420Z,98355.72
2022-08-02T22:42:50.729Z,98321.44
2022-08-02T22:45:17.376Z,98229.19
2022-08-02T22:47:50.728Z,98367.72
2022-08-02T22:50:18.257Z,98384.50
2022-08-02T22:52:46.873Z,98383.34
2022-08-02T22:55:17.736Z,98373.06
2022-08-02T22:57:56.340Z,98433.63
2022-08-02T22:59:06.783Z,98318.38
2022-08-02T23:00:24.650Z,98403.25
2022-08-02T23:02:51.252Z,98435.47
2022-08-02T23:05:18.470Z,98430.72
2022-08-02T23:07:45.083Z,98363.66
2022-08-02T23:10:11.940Z,98379.91
2022-08-02T23:12:38.634Z,98317.19
2022-08-02T23:15:05.833Z,98393.28
2022-08-02T23:17:32.454Z,98337.31
2022-08-02T23:19:59.167Z,98427.59
2022-08-02T23:22:29.870Z,98446.88
2022-08-02T23:25:01.101Z,98438.25
2022-08-02T23:27:29.464Z,98407.25
2022-08-02T23:29:56.311Z,98374.44
2022-08-02T23:32:25.782Z,98388.13
2022-08-02T23:34:54.107Z,98350.19
2022-08-02T23:37:20.719Z,98337.44
2022-08-02T23:39:47.370Z,98312.59
2022-08-02T23:42:14.554Z,98337.56
2022-08-02T23:44:41.452Z,98364.56
2022-08-02T23:47:08.057Z,98362.22
2022-08-02T23:49:34.809Z,98347.69
2022-08-02T23:52:02.198Z,98351.25
2022-08-02T23:54:29.348Z,98362.91
2022-08-02T23:56:56.029Z,98338.06
2022-08-02T23:59:22.863Z,98387.19
